sensor_id;sensor_type;location;lat;lon;timestamp;pressure;altitude;pressure_sealevel;temperature;humidity
27294;BME280;14785;52.556;13.430;2023-09-19T00:00:00;99818.16;;;20.65;100.00
27294;BME280;14785;52.556;13.430;2023-09-19T00:02:26;99821.78;;;20.87;100.00
27294;BME280;14785;52.556;13.430;2023-09-19T00:04:52;99823.38;;;20.71;100.00
27294;BME280;14785;52.556;13.430;2023-09-19T00:07:18;99820.91;;;20.70;100.00
27294;BME280;14785;52.556;13.430;2023-09-19T00:09:44;99820.97;;;20.87;100.00
27294;BME280;14785;52.556;13.430;2023-09-19T00:12:09;99816.34;;;20.70;100.00
27294;BME280;14785;52.556;13.430;2023-09-19T00:14:35;99814.72;;;20.69;100.00
27294;BME280;14785;52.556;13.430;2023-09-19T00:17:04;99826.31;;;20.70;100.00
27294;BME280;14785;52.556;13.430;2023-09-19T00:19:34;99809.38;;;20.74;100.00
27294;BME280;14785;52.556;13.430;2023-09-19T00:22:00;99808.44;;;20.52;100.00
27294;BME280;14785;52.556;13.430;2023-09-19T00:24:25;99808.31;;;20.59;100.00
27294;BME280;14785;52.556;13.430;2023-09-19T00:26:53;99805.50;;;20.54;100.00
27294;BME280;14785;52.556;13.430;2023-09-19T00:29:19;99807.09;;;20.66;100.00
27294;BME280;14785;52.556;13.430;2023-09-19T00:31:45;99801.13;;;20.81;100.00
27294;BME280;14785;52.556;13.430;2023-09-19T00:34:10;99799.88;;;21.00;100.00
27294;BME280;14785;52.556;13.430;2023-09-19T00:36:37;99800.63;;;20.67;100.00
27294;BME280;14785;52.556;13.430;2023-09-19T00:39:04;99799.06;;;20.43;100.00
27294;BME280;14785;52.556;13.430;2023-09-19T00:41:31;99803.56;;;20.38;100.00
27294;BME280;14785;52.556;13.430;2023-09-19T00:43:57;99817.75;;;20.45;100.00
27294;BME280;14785;52.556;13.430;2023-09-19T00:46:22;99806.38;;;20.43;100.00
27294;BME280;14785;52.556;13.430;2023-09-19T00:48:48;99810.41;;;20.57;100.00
27294;BME280;14785;52.556;13.430;2023-09-19T00:51:15;99805.25;;;20.55;100.00
27294;BME280;14785;52.556;13.430;2023-09-19T00:53:44;99812.53;;;20.55;100.00
27294;BME280;14785;52.556;13.430;2023-09-19T00:56:11;99806.38;;;20.71;100.00
27294;BME280;14785;52.556;13.430;2023-09-19T00:58:37;99814.19;;;20.56;100.00
27294;BME280;14785;52.556;13.430;2023-09-19T01:01:03;99809.41;;;20.46;100.00
27294;BME280;14785;52.556;13.430;2023-09-19T01:03:32;99814.41;;;20.26;100.00
27294;BME280;14785;52.556;13.430;2023-09-19T01:05:59;99817.91;;;20.27;100.00
27294;BME280;14785;52.556;13.430;2023-09-19T01:08:25;99815.44;;;20.37;100.00
27294;BME280;14785;52.556;13.430;2023-09-19T01:11:11;99817.75;;;20.45;100.00
27294;BME280;14785;52.556;13.430;2023-09-19T01:17:00;99805.19;;;20.39;100.00
27294;BME280;14785;52.556;13.430;2023-09-19T01:22:16;99812.03;;;20.30;100.00
27294;BME280;14785;52.556;13.430;2023-09-19T01:30:46;99823.16;;;20.45;100.00
27294;BME280;14785;52.556;13.430;2023-09-19T01:33:12;99817.34;;;20.25;100.00
27294;BME280;14785;52.556;13.430;2023-09-19T01:35:38;99816.16;;;20.21;100.00
27294;BME280;14785;52.556;13.430;2023-09-19T01:38:07;99817.13;;;20.15;100.00
27294;BME280;14785;52.556;13.430;2023-09-19T01:40:50;99817.44;;;20.41;100.00
27294;BME280;14785;52.556;13.430;2023-09-19T01:43:32;99826.41;;;20.19;100.00
27294;BME280;14785;52.556;13.430;2023-09-19T01:46:35;99819.94;;;20.20;100.00
27294;BME280;14785;52.556;13.430;2023-09-19T01:52:02;99827.03;;;20.49;100.00
27294;BME280;14785;52.556;13.430;2023-09-19T01:54:34;99829.63;;;20.44;100.00
27294;BME280;14785;52.556;13.430;2023-09-19T01:57:12;99818.16;;;20.65;100.00
27294;BME280;14785;52.556;13.430;2023-09-19T01:59:54;99811.50;;;20.56;100.00
27294;BME280;14785;52.556;13.430;2023-09-19T02:02:22;99809.88;;;20.43;100.00
27294;BME280;14785;52.556;13.430;2023-09-19T02:04:49;99820.53;;;20.22;100.00
27294;BME280;14785;52.556;13.430;2023-09-19T02:07:15;99829.91;;;20.31;100.00
27294;BME280;14785;52.556;13.430;2023-09-19T02:09:41;99830.97;;;20.18;100.00
27294;BME280;14785;52.556;13.430;2023-09-19T02:12:08;99836.34;;;20.30;100.00
27294;BME280;14785;52.556;13.430;2023-09-19T02:14:34;99839.44;;;20.22;100.00
27294;BME280;14785;52.556;13.430;2023-09-19T02:17:01;99836.63;;;19.94;100.00
27294;BME280;14785;52.556;13.430;2023-09-19T02:19:27;99838.38;;;19.65;100.00
27294;BME280;14785;52.556;13.430;2023-09-19T02:21:55;99845.66;;;19.88;100.00
27294;BME280;14785;52.556;13.430;2023-09-19T02:24:20;99853.53;;;20.12;100.00
27294;BME280;14785;52.556;13.430;2023-09-19T02:26:46;99843.09;;;19.81;100.00
27294;BME280;14785;52.556;13.430;2023-09-19T02:29:12;99846.63;;;19.70;100.00
27294;BME280;14785;52.556;13.430;2023-09-19T02:31:38;99842.63;;;19.73;100.00
27294;BME280;14785;52.556;13.430;2023-09-19T02:34:04;99845.31;;;19.96;100.00
27294;BME280;14785;52.556;13.430;2023-09-19T02:36:32;99853.28;;;19.91;100.00
27294;BME280;14785;52.556;13.430;2023-09-19T02:38:57;99852.13;;;19.87;100.00
27294;BME280;14785;52.556;13.430;2023-09-19T02:41:23;99847.66;;;19.81;100.00
27294;BME280;14785;52.556;13.430;2023-09-19T02:43:48;99847.41;;;19.94;100.00
27294;BME280;14785;52.556;13.430;2023-09-19T02:46:14;99855.63;;;19.76;100.00
27294;BME280;14785;52.556;13.430;2023-09-19T02:48:39;99861.63;;;19.66;100.00
27294;BME280;14785;52.556;13.430;2023-09-19T02:51:04;99863.50;;;20.00;100.00
27294;BME280;14785;52.556;13.430;2023-09-19T02:53:30;99865.25;;;20.06;100.00
27294;BME280;14785;52.556;13.430;2023-09-19T02:55:57;99865.28;;;19.95;100.00
27294;BME280;14785;52.556;13.430;2023-09-19T02:58:22;99868.91;;;19.66;100.00
27294;BME280;14785;52.556;13.430;2023-09-19T03:00:48;99877.00;;;19.66;100.00
27294;BME280;14785;52.556;13.430;2023-09-19T03:03:15;99868.78;;;19.61;100.00
27294;BME280;14785;52.556;13.430;2023-09-19T03:05:41;99879.00;;;19.70;100.00
27294;BME280;14785;52.556;13.430;2023-09-19T03:08:12;99878.41;;;19.57;100.00
27294;BME280;14785;52.556;13.430;2023-09-19T03:10:40;99882.28;;;19.72;100.00
27294;BME280;14785;52.556;13.430;2023-09-19T03:13:05;99886.63;;;19.62;100.00
27294;BME280;14785;52.556;13.430;2023-09-19T03:15:33;99888.25;;;19.63;100.00
27294;BME280;14785;52.556;13.430;2023-09-19T03:17:59;99877.00;;;19.66;100.00
27294;BME280;14785;52.556;13.430;2023-09-19T03:20:24;99875.00;;;19.38;100.00
27294;BME280;14785;52.556;13.430;2023-09-19T03:22:52;99890.53;;;19.25;100.00
27294;BME280;14785;52.556;13.430;2023-09-19T03:25:18;99892.56;;;19.29;100.00
27294;BME280;14785;52.556;13.430;2023-09-19T03:27:44;99889.19;;;19.45;100.00
27294;BME280;14785;52.556;13.430;2023-09-19T03:30:10;99893.63;;;19.40;100.00
27294;BME280;14785;52.556;13.430;2023-09-19T03:32:47;99898.28;;;19.33;100.00
27294;BME280;14785;52.556;13.430;2023-09-19T03:35:16;99907.44;;;19.32;100.00
27294;BME280;14785;52.556;13.430;2023-09-19T03:37:42;99898.19;;;19.28;100.00
27294;BME280;14785;52.556;13.430;2023-09-19T03:40:09;99898.84;;;19.23;100.00
27294;BME280;14785;52.556;13.430;2023-09-19T03:42:38;99903.69;;;19.33;100.00
27294;BME280;14785;52.556;13.430;2023-09-19T03:45:04;99905.88;;;19.24;100.00
27294;BME280;14785;52.556;13.430;2023-09-19T03:47:32;99902.69;;;19.16;100.00
27294;BME280;14785;52.556;13.430;2023-09-19T03:49:58;99908.38;;;19.08;100.00
27294;BME280;14785;52.556;13.430;2023-09-19T03:52:23;99936.41;;;19.07;100.00
27294;BME280;14785;52.556;13.430;2023-09-19T03:54:50;99917.66;;;19.12;100.00
27294;BME280;14785;52.556;13.430;2023-09-19T03:57:15;99919.31;;;19.13;100.00
27294;BME280;14785;52.556;13.430;2023-09-19T03:59:45;99919.88;;;19.15;100.00
27294;BME280;14785;52.556;13.430;2023-09-19T04:02:11;99922.69;;;19.08;100.00
27294;BME280;14785;52.556;13.430;2023-09-19T04:04:37;99931.47;;;19.04;100.00
27294;BME280;14785;52.556;13.430;2023-09-19T04:07:02;99925.63;;;19.07;100.00
27294;BME280;14785;52.556;13.430;2023-09-19T04:09:28;99914.41;;;19.21;100.00
27294;BME280;14785;52.556;13.430;2023-09-19T04:11:53;99928.78;;;19.04;100.00
27294;BME280;14785;52.556;13.430;2023-09-19T04:14:19;99923.69;;;18.95;100.00
27294;BME280;14785;52.556;13.430;2023-09-19T04:16:44;99918.69;;;18.99;100.00
27294;BME280;14785;52.556;13.430;2023-09-19T04:19:09;99933.91;;;18.75;100.00
27294;BME280;14785;52.556;13.430;2023-09-19T04:21:35;99931.75;;;18.84;100.00
27294;BME280;14785;52.556;13.430;2023-09-19T04:24:00;99931.97;;;18.82;100.00
27294;BME280;14785;52.556;13.430;2023-09-19T04:26:34;99935.78;;;18.75;100.00
27294;BME280;14785;52.556;13.430;2023-09-19T04:28:59;99938.59;;;18.80;100.00
27294;BME280;14785;52.556;13.430;2023-09-19T04:31:26;99940.66;;;18.66;100.00
27294;BME280;14785;52.556;13.430;2023-09-19T04:33:51;99932.34;;;18.68;100.00
27294;BME280;14785;52.556;13.430;2023-09-19T04:36:17;99939.75;;;18.72;100.00
27294;BME280;14785;52.556;13.430;2023-09-19T04:38:43;99937.81;;;18.61;100.00
27294;BME280;14785;52.556;13.430;2023-09-19T04:41:08;99944.41;;;18.65;100.00
27294;BME280;14785;52.556;13.430;2023-09-19T04:43:33;99946.19;;;18.53;100.00
27294;BME280;14785;52.556;13.430;2023-09-19T04:46:02;99956.91;;;18.60;100.00
27294;BME280;14785;52.556;13.430;2023-09-19T04:48:28;99962.50;;;18.58;100.00
27294;BME280;14785;52.556;13.430;2023-09-19T04:50:54;99961.28;;;18.72;100.00
27294;BME280;14785;52.556;13.430;2023-09-19T04:53:23;99967.00;;;18.46;100.00
27294;BME280;14785;52.556;13.430;2023-09-19T04:55:51;99955.91;;;18.72;100.00
27294;BME280;14785;52.556;13.430;2023-09-19T04:58:21;99969.53;;;18.41;100.00
27294;BME280;14785;52.556;13.430;2023-09-19T05:00:47;99966.16;;;18.46;100.00
27294;BME280;14785;52.556;13.430;2023-09-19T05:03:12;99952.88;;;18.51;100.00
27294;BME280;14785;52.556;13.430;2023-09-19T05:05:38;99962.06;;;18.43;100.00
27294;BME280;14785;52.556;13.430;2023-09-19T05:08:06;99966.84;;;18.59;100.00
27294;BME280;14785;52.556;13.430;2023-09-19T05:10:34;99964.31;;;18.46;100.00
27294;BME280;14785;52.556;13.430;2023-09-19T05:13:00;99975.38;;;18.38;100.00
27294;BME280;14785;52.556;13.430;2023-09-19T05:15:26;99976.59;;;18.42;100.00
27294;BME280;14785;52.556;13.430;2023-09-19T05:17:52;99986.13;;;18.38;100.00
27294;BME280;14785;52.556;13.430;2023-09-19T05:20:20;99980.03;;;18.49;100.00
27294;BME280;14785;52.556;13.430;2023-09-19T05:23:02;99989.59;;;18.45;100.00
27294;BME280;14785;52.556;13.430;2023-09-19T05:25:29;99993.59;;;18.36;100.00
27294;BME280;14785;52.556;13.430;2023-09-19T05:27:57;99989.00;;;18.61;100.00
27294;BME280;14785;52.556;13.430;2023-09-19T05:30:25;100012.28;;;18.31;100.00
27294;BME280;14785;52.556;13.430;2023-09-19T05:32:53;99999.53;;;18.20;100.00
27294;BME280;14785;52.556;13.430;2023-09-19T05:35:20;100009.06;;;18.23;100.00
27294;BME280;14785;52.556;13.430;2023-09-19T05:37:47;100004.59;;;18.10;100.00
27294;BME280;14785;52.556;13.430;2023-09-19T05:40:14;100013.66;;;18.16;100.00
27294;BME280;14785;52.556;13.430;2023-09-19T05:42:40;100016.28;;;18.22;100.00
27294;BME280;14785;52.556;13.430;2023-09-19T05:45:06;100020.28;;;18.20;100.00
27294;BME280;14785;52.556;13.430;2023-09-19T05:47:32;100024.53;;;18.27;100.00
27294;BME280;14785;52.556;13.430;2023-09-19T05:49:58;100032.22;;;18.24;100.00
27294;BME280;14785;52.556;13.430;2023-09-19T05:52:24;100029.06;;;18.51;100.00
27294;BME280;14785;52.556;13.430;2023-09-19T05:54:50;100031.91;;;18.38;100.00
27294;BME280;14785;52.556;13.430;2023-09-19T05:57:15;100036.28;;;18.39;100.00
27294;BME280;14785;52.556;13.430;2023-09-19T05:59:41;100039.97;;;18.38;100.00
27294;BME280;14785;52.556;13.430;2023-09-19T06:02:08;100053.31;;;18.51;100.00
27294;BME280;14785;52.556;13.430;2023-09-19T06:04:35;100047.03;;;18.39;100.00
27294;BME280;14785;52.556;13.430;2023-09-19T06:07:00;100045.63;;;18.30;100.00
27294;BME280;14785;52.556;13.430;2023-09-19T06:09:26;100062.38;;;18.32;100.00
27294;BME280;14785;52.556;13.430;2023-09-19T06:11:53;100060.84;;;18.67;100.00
27294;BME280;14785;52.556;13.430;2023-09-19T06:14:20;100058.88;;;18.56;100.00
27294;BME280;14785;52.556;13.430;2023-09-19T06:16:46;100068.44;;;18.52;100.00
27294;BME280;14785;52.556;13.430;2023-09-19T06:19:12;100062.94;;;18.65;100.00
27294;BME280;14785;52.556;13.430;2023-09-19T06:21:37;100065.91;;;18.57;100.00
27294;BME280;14785;52.556;13.430;2023-09-19T06:24:04;100071.22;;;18.64;100.00
27294;BME280;14785;52.556;13.430;2023-09-19T06:26:29;100081.31;;;18.50;100.00
27294;BME280;14785;52.556;13.430;2023-09-19T06:28:56;100063.66;;;18.72;100.00
27294;BME280;14785;52.556;13.430;2023-09-19T06:31:21;100082.94;;;18.51;100.00
27294;BME280;14785;52.556;13.430;2023-09-19T06:33:48;100072.69;;;18.42;100.00
27294;BME280;14785;52.556;13.430;2023-09-19T06:36:14;100074.63;;;18.53;100.00
27294;BME280;14785;52.556;13.430;2023-09-19T06:38:40;100078.09;;;18.35;100.00
27294;BME280;14785;52.556;13.430;2023-09-19T06:41:06;100075.81;;;18.99;100.00
27294;BME280;14785;52.556;13.430;2023-09-19T06:43:34;100086.53;;;19.06;100.00
27294;BME280;14785;52.556;13.430;2023-09-19T06:46:00;100086.19;;;18.60;100.00
27294;BME280;14785;52.556;13.430;2023-09-19T06:48:27;100100.19;;;18.68;100.00
27294;BME280;14785;52.556;13.430;2023-09-19T06:50:54;100097.34;;;18.81;100.00
27294;BME280;14785;52.556;13.430;2023-09-19T06:53:20;100101.03;;;18.69;100.00
27294;BME280;14785;52.556;13.430;2023-09-19T06:55:46;100091.84;;;18.76;100.00
27294;BME280;14785;52.556;13.430;2023-09-19T06:58:12;100104.09;;;18.90;100.00
27294;BME280;14785;52.556;13.430;2023-09-19T07:00:38;100103.16;;;19.03;100.00
27294;BME280;14785;52.556;13.430;2023-09-19T07:03:05;100103.97;;;19.04;100.00
27294;BME280;14785;52.556;13.430;2023-09-19T07:05:34;100098.44;;;19.53;100.00
27294;BME280;14785;52.556;13.430;2023-09-19T07:08:03;100098.28;;;19.48;100.00
27294;BME280;14785;52.556;13.430;2023-09-19T07:10:29;100117.78;;;19.32;100.00
27294;BME280;14785;52.556;13.430;2023-09-19T07:13:00;100111.50;;;19.38;100.00
27294;BME280;14785;52.556;13.430;2023-09-19T07:15:27;100123.09;;;19.38;100.00
27294;BME280;14785;52.556;13.430;2023-09-19T07:17:55;100137.47;;;19.14;100.00
27294;BME280;14785;52.556;13.430;2023-09-19T07:20:22;100118.28;;;19.22;100.00
27294;BME280;14785;52.556;13.430;2023-09-19T07:22:48;100123.75;;;19.52;100.00
27294;BME280;14785;52.556;13.430;2023-09-19T07:25:16;100134.22;;;19.24;100.00
27294;BME280;14785;52.556;13.430;2023-09-19T07:27:42;100117.47;;;19.22;100.00
27294;BME280;14785;52.556;13.430;2023-09-19T07:30:08;100139.34;;;19.32;100.00
27294;BME280;14785;52.556;13.430;2023-09-19T07:32:34;100124.38;;;19.36;100.00
27294;BME280;14785;52.556;13.430;2023-09-19T07:35:03;100141.63;;;19.10;100.00
27294;BME280;14785;52.556;13.430;2023-09-19T07:37:30;100137.53;;;19.26;100.00
27294;BME280;14785;52.556;13.430;2023-09-19T07:40:01;100136.69;;;19.07;100.00
27294;BME280;14785;52.556;13.430;2023-09-19T07:42:29;100136.78;;;19.55;100.00
27294;BME280;14785;52.556;13.430;2023-09-19T07:44:55;100151.91;;;19.20;100.00
27294;BME280;14785;52.556;13.430;2023-09-19T07:47:20;100136.06;;;19.30;100.00
27294;BME280;14785;52.556;13.430;2023-09-19T07:49:49;100175.25;;;19.08;100.00
27294;BME280;14785;52.556;13.430;2023-09-19T07:52:15;100150.78;;;19.09;100.00
27294;BME280;14785;52.556;13.430;2023-09-19T07:54:41;100170.63;;;19.15;100.00
27294;BME280;14785;52.556;13.430;2023-09-19T07:57:10;100182.25;;;19.15;100.00
27294;BME280;14785;52.556;13.430;2023-09-19T07:59:37;100174.75;;;19.17;100.00
27294;BME280;14785;52.556;13.430;2023-09-19T08:02:04;100181.09;;;19.05;100.00
27294;BME280;14785;52.556;13.430;2023-09-19T08:04:30;100183.19;;;19.45;100.00
27294;BME280;14785;52.556;13.430;2023-09-19T08:06:59;100176.50;;;19.66;100.00
27294;BME280;14785;52.556;13.430;2023-09-19T08:09:26;100198.69;;;19.32;100.00
27294;BME280;14785;52.556;13.430;2023-09-19T08:11:54;100177.94;;;19.32;100.00
27294;BME280;14785;52.556;13.430;2023-09-19T08:14:19;100180.06;;;19.24;100.00
27294;BME280;14785;52.556;13.430;2023-09-19T08:16:45;100165.53;;;19.07;100.00
27294;BME280;14785;52.556;13.430;2023-09-19T08:19:12;100157.19;;;19.33;100.00
27294;BME280;14785;52.556;13.430;2023-09-19T08:21:37;100171.09;;;19.30;100.00
27294;BME280;14785;52.556;13.430;2023-09-19T08:24:03;100185.75;;;18.98;100.00
27294;BME280;14785;52.556;13.430;2023-09-19T08:26:31;100186.94;;;19.02;100.00
27294;BME280;14785;52.556;13.430;2023-09-19T08:28:57;100171.66;;;18.95;100.00
27294;BME280;14785;52.556;13.430;2023-09-19T08:31:23;100155.47;;;18.95;100.00
27294;BME280;14785;52.556;13.430;2023-09-19T08:33:50;100192.03;;;18.91;100.00
27294;BME280;14785;52.556;13.430;2023-09-19T08:36:16;100188.03;;;19.19;100.00
27294;BME280;14785;52.556;13.430;2023-09-19T08:38:42;100182.50;;;19.32;100.00
27294;BME280;14785;52.556;13.430;2023-09-19T08:41:10;100178.63;;;19.46;100.00
27294;BME280;14785;52.556;13.430;2023-09-19T08:43:36;100200.38;;;19.26;100.00
27294;BME280;14785;52.556;13.430;2023-09-19T08:46:11;100198.00;;;18.93;100.00
27294;BME280;14785;52.556;13.430;2023-09-19T08:48:54;100198.91;;;19.30;100.00
27294;BME280;14785;52.556;13.430;2023-09-19T08:51:43;100187.16;;;18.75;100.00
27294;BME280;14785;52.556;13.430;2023-09-19T08:54:25;100208.94;;;18.98;100.00
27294;BME280;14785;52.556;13.430;2023-09-19T08:56:55;100193.28;;;19.32;100.00
27294;BME280;14785;52.556;13.430;2023-09-19T08:59:22;100190.88;;;19.60;100.00
27294;BME280;14785;52.556;13.430;2023-09-19T09:01:54;100199.31;;;19.34;100.00
27294;BME280;14785;52.556;13.430;2023-09-19T09:04:23;100224.00;;;19.67;100.00
27294;BME280;14785;52.556;13.430;2023-09-19T09:06:51;100215.34;;;19.22;100.00
27294;BME280;14785;52.556;13.430;2023-09-19T09:09:19;100239.53;;;19.11;100.00
27294;BME280;14785;52.556;13.430;2023-09-19T09:11:44;100204.47;;;19.11;100.00
27294;BME280;14785;52.556;13.430;2023-09-19T09:14:11;100227.63;;;18.93;100.00
27294;BME280;14785;52.556;13.430;2023-09-19T09:16:39;100208.13;;;19.41;100.00
27294;BME280;14785;52.556;13.430;2023-09-19T09:19:05;100211.88;;;19.40;100.00
27294;BME280;14785;52.556;13.430;2023-09-19T09:21:30;100233.31;;;19.53;100.00
27294;BME280;14785;52.556;13.430;2023-09-19T09:24:28;100224.38;;;19.70;100.00
27294;BME280;14785;52.556;13.430;2023-09-19T09:26:55;100220.72;;;19.29;100.00
27294;BME280;14785;52.556;13.430;2023-09-19T09:29:41;100213.81;;;19.87;100.00
27294;BME280;14785;52.556;13.430;2023-09-19T09:32:21;100216.94;;;19.30;100.00
27294;BME280;14785;52.556;13.430;2023-09-19T09:34:52;100237.50;;;19.31;100.00
27294;BME280;14785;52.556;13.430;2023-09-19T09:37:18;100215.63;;;19.75;100.00
27294;BME280;14785;52.556;13.430;2023-09-19T09:40:00;100208.44;;;20.16;100.00
27294;BME280;14785;52.556;13.430;2023-09-19T09:42:44;100219.84;;;20.18;100.00
27294;BME280;14785;52.556;13.430;2023-09-19T09:45:19;100208.25;;;19.82;100.00
27294;BME280;14785;52.556;13.430;2023-09-19T09:47:58;100217.78;;;20.32;100.00
27294;BME280;14785;52.556;13.430;2023-09-19T09:50:25;100221.25;;;20.21;100.00
27294;BME280;14785;52.556;13.430;2023-09-19T09:52:56;100232.50;;;20.18;100.00
27294;BME280;14785;52.556;13.430;2023-09-19T09:58:35;100218.00;;;20.01;100.00
27294;BME280;14785;52.556;13.430;2023-09-19T10:01:03;100226.63;;;19.73;100.00
27294;BME280;14785;52.556;13.430;2023-09-19T10:03:38;100233.00;;;19.79;100.00
27294;BME280;14785;52.556;13.430;2023-09-19T10:06:15;100238.50;;;19.72;100.00
27294;BME280;14785;52.556;13.430;2023-09-19T10:09:08;100235.84;;;19.48;100.00
27294;BME280;14785;52.556;13.430;2023-09-19T10:11:47;100228.72;;;19.71;100.00
27294;BME280;14785;52.556;13.430;2023-09-19T10:14:20;100251.59;;;19.51;100.00
27294;BME280;14785;52.556;13.430;2023-09-19T10:16:53;100233.31;;;19.89;100.00
27294;BME280;14785;52.556;13.430;2023-09-19T10:19:29;100224.34;;;20.06;100.00
27294;BME280;14785;52.556;13.430;2023-09-19T10:21:55;100228.19;;;20.17;100.00
27294;BME280;14785;52.556;13.430;2023-09-19T10:24:26;100231.84;;;21.16;100.00
27294;BME280;14785;52.556;13.430;2023-09-19T10:26:53;100242.53;;;21.00;100.00
27294;BME280;14785;52.556;13.430;2023-09-19T10:29:21;100255.88;;;20.83;100.00
27294;BME280;14785;52.556;13.430;2023-09-19T10:31:49;100234.38;;;20.35;100.00
27294;BME280;14785;52.556;13.430;2023-09-19T10:34:19;100229.59;;;20.49;100.00
27294;BME280;14785;52.556;13.430;2023-09-19T10:36:46;100226.69;;;20.62;100.00
27294;BME280;14785;52.556;13.430;2023-09-19T10:39:14;100224.03;;;21.54;100.00
27294;BME280;14785;52.556;13.430;2023-09-19T10:41:49;100224.97;;;20.91;100.00
27294;BME280;14785;52.556;13.430;2023-09-19T10:44:21;100224.28;;;21.41;100.00
27294;BME280;14785;52.556;13.430;2023-09-19T10:46:49;100218.03;;;22.03;100.00
27294;BME280;14785;52.556;13.430;2023-09-19T10:49:14;100223.34;;;21.47;100.00
27294;BME280;14785;52.556;13.430;2023-09-19T10:51:42;100243.75;;;20.74;100.00
27294;BME280;14785;52.556;13.430;2023-09-19T10:54:16;100226.28;;;20.47;100.00
27294;BME280;14785;52.556;13.430;2023-09-19T10:56:46;100233.88;;;20.68;100.00
27294;BME280;14785;52.556;13.430;2023-09-19T10:59:15;100238.34;;;20.74;100.00
27294;BME280;14785;52.556;13.430;2023-09-19T11:01:57;100236.38;;;20.40;100.00
27294;BME280;14785;52.556;13.430;2023-09-19T11:04:37;100236.19;;;20.53;100.00
27294;BME280;14785;52.556;13.430;2023-09-19T11:07:11;100234.03;;;20.96;100.00
27294;BME280;14785;52.556;13.430;2023-09-19T11:09:52;100229.00;;;21.11;100.00
27294;BME280;14785;52.556;13.430;2023-09-19T11:14:54;100240.50;;;21.18;100.00
27294;BME280;14785;52.556;13.430;2023-09-19T11:30:49;100232.94;;;21.66;100.00
27294;BME280;14785;52.556;13.430;2023-09-19T11:33:16;100234.56;;;21.67;100.00
27294;BME280;14785;52.556;13.430;2023-09-19T11:36:10;100243.00;;;21.31;100.00
27294;BME280;14785;52.556;13.430;2023-09-19T11:46:30;100239.81;;;22.36;100.00
27294;BME280;14785;52.556;13.430;2023-09-19T11:49:05;100252.88;;;21.03;100.00
27294;BME280;14785;52.556;13.430;2023-09-19T11:51:51;100236.59;;;21.83;100.00
27294;BME280;14785;52.556;13.430;2023-09-19T11:54:17;100240.81;;;21.68;100.00
27294;BME280;14785;52.556;13.430;2023-09-19T11:56:54;100242.13;;;22.44;100.00
27294;BME280;14785;52.556;13.430;2023-09-19T11:59:23;100243.06;;;21.82;100.00
27294;BME280;14785;52.556;13.430;2023-09-19T12:01:54;100248.75;;;21.46;100.00
27294;BME280;14785;52.556;13.430;2023-09-19T12:04:37;100266.41;;;21.14;100.00
27294;BME280;14785;52.556;13.430;2023-09-19T12:07:09;100255.81;;;21.01;100.00
27294;BME280;14785;52.556;13.430;2023-09-19T12:09:42;100254.66;;;20.79;100.00
27294;BME280;14785;52.556;13.430;2023-09-19T12:12:22;100234.16;;;21.47;100.00
27294;BME280;14785;52.556;13.430;2023-09-19T12:14:49;100274.50;;;21.26;100.00
27294;BME280;14785;52.556;13.430;2023-09-19T12:17:17;100252.75;;;21.44;100.00
27294;BME280;14785;52.556;13.430;2023-09-19T12:19:50;100250.53;;;21.18;100.00
27294;BME280;14785;52.556;13.430;2023-09-19T12:22:16;100240.34;;;21.82;100.00
27294;BME280;14785;52.556;13.430;2023-09-19T12:24:43;100252.03;;;21.48;100.00
27294;BME280;14785;52.556;13.430;2023-09-19T12:27:09;100247.81;;;21.29;100.00
27294;BME280;14785;52.556;13.430;2023-09-19T12:29:43;100252.16;;;21.53;100.00
27294;BME280;14785;52.556;13.430;2023-09-19T12:32:11;100255.94;;;21.29;100.00
27294;BME280;14785;52.556;13.430;2023-09-19T12:34:37;100249.44;;;21.53;100.00
27294;BME280;14785;52.556;13.430;2023-09-19T12:39:45;100239.72;;;22.31;100.00
27294;BME280;14785;52.556;13.430;2023-09-19T12:42:23;100254.44;;;22.35;100.00
27294;BME280;14785;52.556;13.430;2023-09-19T12:44:51;100245.09;;;22.88;100.00
27294;BME280;14785;52.556;13.430;2023-09-19T12:47:28;100244.75;;;22.39;100.00
27294;BME280;14785;52.556;13.430;2023-09-19T12:50:12;100240.16;;;22.12;100.00
27294;BME280;14785;52.556;13.430;2023-09-19T12:52:52;100237.34;;;22.80;100.00
27294;BME280;14785;52.556;13.430;2023-09-19T12:55:30;100238.00;;;22.53;100.00
27294;BME280;14785;52.556;13.430;2023-09-19T13:00:33;100259.44;;;22.15;100.00
27294;BME280;14785;52.556;13.430;2023-09-19T13:03:15;100251.91;;;22.17;100.00
27294;BME280;14785;52.556;13.430;2023-09-19T13:05:52;100280.66;;;20.80;100.00
27294;BME280;14785;52.556;13.430;2023-09-19T13:11:12;100256.06;;;21.34;100.00
27294;BME280;14785;52.556;13.430;2023-09-19T13:13:48;100245.03;;;21.98;100.00
27294;BME280;14785;52.556;13.430;2023-09-19T13:16:15;100248.81;;;21.86;100.00
27294;BME280;14785;52.556;13.430;2023-09-19T13:18:54;100240.97;;;21.50;100.00
27294;BME280;14785;52.556;13.430;2023-09-19T13:21:34;100250.41;;;21.47;100.00
27294;BME280;14785;52.556;13.430;2023-09-19T13:24:19;100255.69;;;21.54;100.00
27294;BME280;14785;52.556;13.430;2023-09-19T13:26:44;100248.75;;;21.35;100.00
27294;BME280;14785;52.556;13.430;2023-09-19T13:29:11;100272.50;;;20.98;100.00
27294;BME280;14785;52.556;13.430;2023-09-19T13:31:40;100252.75;;;21.09;100.00